createdAt,value
2022-10-11T00:00:37.992Z,12.04
2022-10-11T00:03:22.448Z,12.04
2022-10-11T00:06:06.577Z,12.08
2022-10-11T00:08:49.927Z,12.12
2022-10-11T00:11:32.818Z,12.20
2022-10-11T00:14:15.746Z,12.26
2022-10-11T00:16:58.773Z,12.31
2022-10-11T00:19:42.933Z,12.32
2022-10-11T00:22:25.854Z,12.33
2022-10-11T00:25:10.793Z,12.33
2022-10-11T00:27:53.692Z,12.35
2022-10-11T00:30:36.511Z,12.36
2022-10-11T00:33:19.461Z,12.38
2022-10-11T00:36:04.287Z,12.41
2022-10-11T00:38:47.911Z,12.43
2022-10-11T00:41:30.910Z,12.44
2022-10-11T00:44:17.203Z,12.43
2022-10-11T00:47:02.964Z,12.43
2022-10-11T00:49:49.128Z,12.45
2022-10-11T00:52:38.569Z,12.52
2022-10-11T00:55:23.183Z,12.55
2022-10-11T00:58:07.286Z,12.58
2022-10-11T01:00:50.683Z,12.59
2022-10-11T01:03:36.216Z,12.59
2022-10-11T01:06:19.184Z,12.56
2022-10-11T01:09:04.782Z,12.53
2022-10-11T01:11:49.006Z,12.53
2022-10-11T01:14:54.837Z,12.49
2022-10-11T01:17:47.530Z,12.46
2022-10-11T01:20:46.611Z,12.45
2022-10-11T01:24:08.682Z,12.43
2022-10-11T01:27:25.942Z,12.40
2022-10-11T01:30:20.331Z,12.38
2022-10-11T01:33:16.991Z,12.36
2022-10-11T01:36:08.442Z,12.37
2022-10-11T01:38:55.134Z,12.36
2022-10-11T01:41:40.848Z,12.35
2022-10-11T01:44:25.461Z,12.33
2022-10-11T01:47:09.718Z,12.23
2022-10-11T01:49:57.385Z,12.20
2022-10-11T01:52:44.935Z,12.16
2022-10-11T01:55:37.222Z,12.12
2022-10-11T01:58:38.150Z,11.97
2022-10-11T02:01:32.118Z,11.89
2022-10-11T02:04:21.488Z,11.81
2022-10-11T02:07:11.878Z,11.78
2022-10-11T02:10:01.415Z,11.73
2022-10-11T02:12:47.953Z,11.70
2022-10-11T02:15:33.913Z,11.69
2022-10-11T02:18:20.371Z,11.73
2022-10-11T02:21:08.690Z,11.76
2022-10-11T02:23:55.966Z,11.80
2022-10-11T02:26:44.759Z,11.86
2022-10-11T02:29:30.686Z,11.91
2022-10-11T02:32:15.428Z,11.97
2022-10-11T02:34:59.211Z,12.00
2022-10-11T02:37:54.072Z,12.02
2022-10-11T02:40:40.722Z,12.02
2022-10-11T02:43:30.682Z,12.01
2022-10-11T02:46:17.561Z,12.02
2022-10-11T02:49:01.621Z,12.04
2022-10-11T02:51:44.879Z,12.06
2022-10-11T02:54:29.062Z,12.08
2022-10-11T02:57:11.981Z,12.05
2022-10-11T02:59:54.880Z,12.03
2022-10-11T03:02:37.875Z,12.03
2022-10-11T03:05:20.867Z,12.05
2022-10-11T03:08:03.782Z,12.07
2022-10-11T03:10:48.359Z,12.11
2022-10-11T03:13:31.243Z,12.13
2022-10-11T03:16:14.856Z,12.13
2022-10-11T03:18:57.968Z,12.13
2022-10-11T03:21:40.840Z,12.13
2022-10-11T03:24:23.815Z,12.16
2022-10-11T03:27:08.585Z,12.18
2022-10-11T03:29:51.212Z,12.20
2022-10-11T03:32:34.084Z,12.22
2022-10-11T03:35:17.900Z,12.25
2022-10-11T03:38:00.767Z,12.30
2022-10-11T03:40:44.767Z,12.31
2022-10-11T03:43:29.033Z,12.33
2022-10-11T03:46:11.918Z,12.33
2022-10-11T03:48:54.884Z,12.34
2022-10-11T03:51:37.775Z,12.36
2022-10-11T03:54:20.648Z,12.35
2022-10-11T03:57:03.535Z,12.38
2022-10-11T03:59:48.098Z,12.38
2022-10-11T04:02:32.211Z,12.40
2022-10-11T04:05:16.750Z,12.42
2022-10-11T04:07:59.651Z,12.41
2022-10-11T04:10:42.817Z,12.42
2022-10-11T04:13:25.695Z,12.43
2022-10-11T04:16:09.973Z,12.39
2022-10-11T04:18:52.825Z,12.15
2022-10-11T04:21:35.647Z,12.15
2022-10-11T04:24:18.579Z,12.15
2022-10-11T04:27:01.469Z,12.14
2022-10-11T04:29:44.383Z,12.14
2022-10-11T04:32:28.791Z,12.13
2022-10-11T04:35:12.624Z,12.10
2022-10-11T04:37:55.499Z,12.06
2022-10-11T04:40:38.379Z,12.05
2022-10-11T04:43:21.600Z,12.00
2022-10-11T04:46:05.888Z,12.00
2022-10-11T04:48:50.448Z,12.04
2022-10-11T04:51:34.049Z,12.05
2022-10-11T04:54:17.088Z,12.07
2022-10-11T04:56:59.942Z,12.11
2022-10-11T04:59:45.496Z,12.13
2022-10-11T05:02:32.270Z,12.15
2022-10-11T05:05:17.632Z,12.15
2022-10-11T05:08:00.545Z,12.14
2022-10-11T05:10:43.642Z,12.09
2022-10-11T05:13:27.217Z,12.00
2022-10-11T05:16:11.445Z,11.98
2022-10-11T05:18:54.700Z,12.00
2022-10-11T05:21:38.905Z,12.03
2022-10-11T05:24:21.836Z,12.03
2022-10-11T05:27:04.843Z,11.98
2022-10-11T05:29:47.743Z,12.03
2022-10-11T05:32:30.587Z,12.06
2022-10-11T05:35:13.472Z,12.10
2022-10-11T05:37:57.664Z,12.13
2022-10-11T05:40:40.981Z,12.16
2022-10-11T05:43:24.022Z,12.21
2022-10-11T05:46:08.183Z,12.24
2022-10-11T05:48:51.380Z,12.28
2022-10-11T05:51:34.236Z,12.33
2022-10-11T05:54:18.500Z,12.34
2022-10-11T05:57:01.350Z,12.35
2022-10-11T05:59:44.280Z,12.35
2022-10-11T06:02:27.228Z,12.38
2022-10-11T06:05:10.731Z,12.40
2022-10-11T06:07:53.645Z,12.42
2022-10-11T06:10:38.863Z,12.43
2022-10-11T06:13:21.704Z,12.44
2022-10-11T06:16:05.282Z,12.45
2022-10-11T06:18:48.430Z,12.48
2022-10-11T06:21:32.906Z,12.49
2022-10-11T06:24:16.035Z,12.50
2022-10-11T06:27:00.495Z,12.48
2022-10-11T06:29:43.348Z,12.47
2022-10-11T06:32:26.178Z,12.45
2022-10-11T06:35:09.875Z,12.43
2022-10-11T06:37:52.755Z,12.43
2022-10-11T06:40:35.633Z,12.44
2022-10-11T06:43:20.188Z,12.41
2022-10-11T06:46:03.271Z,12.37
2022-10-11T06:48:47.650Z,12.35
2022-10-11T06:51:30.541Z,12.37
2022-10-11T06:54:13.479Z,12.36
2022-10-11T06:56:56.348Z,12.38
2022-10-11T06:59:40.636Z,12.39
2022-10-11T07:02:23.532Z,12.44
2022-10-11T07:05:07.127Z,12.51
2022-10-11T07:07:49.992Z,12.57
2022-10-11T07:10:32.905Z,12.59
2022-10-11T07:13:17.299Z,12.64
2022-10-11T07:16:04.153Z,12.70
2022-10-11T07:18:47.947Z,12.77
2022-10-11T07:21:32.212Z,12.83
2022-10-11T07:24:15.118Z,12.88
2022-10-11T07:26:58.055Z,12.91
2022-10-11T07:29:40.913Z,12.94
2022-10-11T07:32:25.175Z,13.00
2022-10-11T07:35:08.584Z,13.01
2022-10-11T07:37:51.514Z,13.05
2022-10-11T07:40:35.544Z,13.08
2022-10-11T07:43:18.530Z,13.11
2022-10-11T07:46:04.634Z,13.11
2022-10-11T07:48:50.136Z,13.13
2022-10-11T07:51:34.202Z,13.16
2022-10-11T07:54:17.070Z,13.19
2022-10-11T07:57:00.008Z,13.20
2022-10-11T07:59:47.833Z,13.22
2022-10-11T08:02:32.953Z,13.25
2022-10-11T08:05:17.618Z,13.24
2022-10-11T08:08:00.706Z,13.25
2022-10-11T08:10:43.797Z,13.28
2022-10-11T08:13:27.564Z,13.29
2022-10-11T08:16:12.265Z,13.32
2022-10-11T08:18:56.960Z,13.34
2022-10-11T08:21:41.715Z,13.40
2022-10-11T08:24:43.485Z,13.43
2022-10-11T08:27:26.417Z,13.46
2022-10-11T08:30:10.749Z,13.51
2022-10-11T08:32:53.639Z,13.54
2022-10-11T08:35:37.438Z,13.58
2022-10-11T08:38:22.159Z,13.61
2022-10-11T08:41:23.683Z,13.64
2022-10-11T08:44:18.507Z,13.71
2022-10-11T08:47:04.346Z,13.72
2022-10-11T08:49:48.179Z,13.72
2022-10-11T08:52:36.863Z,13.79
2022-10-11T08:55:27.745Z,13.83
2022-10-11T08:58:14.928Z,13.90
2022-10-11T09:00:58.989Z,13.97
2022-10-11T09:03:43.661Z,14.02
2022-10-11T09:06:39.215Z,14.05
2022-10-11T09:09:35.957Z,14.10
2022-10-11T09:12:33.516Z,14.13
2022-10-11T09:15:30.649Z,14.17
2022-10-11T09:18:41.145Z,14.17
2022-10-11T09:21:33.570Z,14.19
2022-10-11T09:24:34.302Z,14.22
2022-10-11T09:27:33.255Z,14.33
2022-10-11T09:30:25.399Z,14.43
2022-10-11T09:33:17.711Z,14.53
2022-10-11T09:36:01.434Z,14.71
2022-10-11T09:38:51.897Z,14.81
2022-10-11T09:41:39.513Z,14.88
2022-10-11T09:44:26.483Z,15.00
2022-10-11T09:47:16.331Z,15.10
2022-10-11T09:50:03.006Z,15.21
2022-10-11T09:52:49.906Z,15.25
2022-10-11T09:55:36.318Z,15.27
2022-10-11T09:58:38.516Z,15.22
2022-10-11T10:01:28.263Z,15.25
2022-10-11T10:04:13.636Z,15.38
2022-10-11T10:07:12.873Z,15.53
2022-10-11T10:09:56.078Z,15.63
2022-10-11T10:12:39.006Z,15.65
2022-10-11T10:15:31.017Z,15.63
2022-10-11T10:18:22.163Z,15.61
2022-10-11T10:21:08.667Z,15.61
2022-10-11T10:23:55.361Z,15.62
2022-10-11T10:26:39.979Z,15.67
2022-10-11T10:29:22.790Z,15.70
2022-10-11T10:32:14.937Z,15.70
2022-10-11T10:35:07.745Z,15.74
2022-10-11T10:37:58.566Z,15.72
2022-10-11T10:40:44.694Z,15.70
2022-10-11T10:43:30.983Z,15.63
2022-10-11T10:46:27.056Z,15.57
2022-10-11T10:52:42.110Z,15.41
2022-10-11T10:55:29.829Z,15.38
2022-10-11T10:58:31.531Z,15.33
2022-10-11T11:01:20.230Z,15.30
2022-10-11T11:04:11.341Z,15.32
2022-10-11T11:06:59.766Z,15.35
2022-10-11T11:09:55.847Z,15.36
2022-10-11T11:12:47.823Z,15.36
2022-10-11T11:15:38.091Z,15.30
2022-10-11T11:18:29.923Z,15.28
2022-10-11T11:21:24.701Z,15.19
2022-10-11T11:24:18.325Z,15.11
2022-10-11T11:27:07.574Z,15.08
2022-10-11T11:29:57.364Z,15.08
2022-10-11T11:32:50.321Z,15.11
2022-10-11T11:35:37.959Z,15.13
2022-10-11T11:38:29.400Z,15.19
2022-10-11T11:41:18.183Z,15.27
2022-10-11T11:44:07.650Z,15.27
2022-10-11T11:46:57.855Z,15.27
2022-10-11T11:49:46.301Z,15.29
2022-10-11T11:52:34.739Z,15.29
2022-10-11T11:55:24.036Z,15.32
2022-10-11T11:58:18.379Z,15.38
2022-10-11T12:01:13.431Z,15.40
2022-10-11T12:03:59.360Z,15.38
2022-10-11T12:07:04.199Z,15.42
2022-10-11T12:09:50.496Z,15.76
2022-10-11T12:12:36.242Z,16.22
2022-10-11T12:15:23.460Z,16.30
2022-10-11T12:18:16.506Z,16.37
2022-10-11T12:21:05.805Z,16.35
2022-10-11T12:23:49.647Z,16.37
2022-10-11T12:26:44.035Z,16.29
2022-10-11T12:29:46.708Z,16.29
2022-10-11T12:32:51.936Z,16.30
2022-10-11T12:36:07.379Z,16.25
2022-10-11T12:39:43.197Z,16.22
2022-10-11T12:42:31.745Z,16.25
2022-10-11T12:45:35.436Z,16.29
2022-10-11T12:48:45.348Z,16.38
2022-10-11T12:51:36.261Z,16.50
2022-10-11T12:54:44.601Z,16.58
2022-10-11T12:58:06.301Z,16.60
2022-10-11T13:01:24.990Z,16.63
2022-10-11T13:04:10.872Z,16.68
2022-10-11T13:07:01.095Z,16.72
2022-10-11T13:09:49.198Z,16.78
2022-10-11T13:12:38.443Z,16.82
2022-10-11T13:15:24.347Z,16.97
2022-10-11T13:18:07.149Z,16.92
2022-10-11T13:20:50.227Z,16.94
2022-10-11T13:23:39.863Z,16.93
2022-10-11T13:26:22.796Z,16.86
2022-10-11T13:29:16.093Z,16.78
2022-10-11T13:31:59.642Z,16.70
2022-10-11T13:34:45.552Z,16.60
2022-10-11T13:37:29.949Z,16.55
2022-10-11T13:40:18.714Z,16.54
2022-10-11T13:43:06.161Z,16.65
2022-10-11T13:45:49.733Z,16.73
2022-10-11T13:48:32.687Z,16.79
2022-10-11T13:51:27.666Z,16.80
2022-10-11T13:54:15.814Z,16.78
2022-10-11T13:57:05.139Z,16.70
2022-10-11T13:59:48.102Z,16.63
2022-10-11T14:02:35.578Z,16.56
2022-10-11T14:05:35.406Z,16.49
2022-10-11T14:08:25.720Z,16.45
2022-10-11T14:11:09.962Z,16.42
2022-10-11T14:13:54.207Z,16.38
2022-10-11T14:16:37.127Z,16.34
2022-10-11T14:19:21.656Z,16.32
2022-10-11T14:22:06.715Z,16.30
2022-10-11T14:24:49.707Z,16.31
2022-10-11T14:27:32.683Z,16.28
2022-10-11T14:30:25.530Z,16.23
2022-10-11T14:33:09.586Z,16.18
2022-10-11T14:35:52.891Z,16.13
2022-10-11T14:38:35.806Z,16.09
2022-10-11T14:41:18.986Z,16.05
2022-10-11T14:44:01.875Z,16.03
2022-10-11T14:46:47.920Z,16.03
2022-10-11T14:49:33.670Z,16.03
2022-10-11T14:52:16.555Z,16.00
2022-10-11T14:54:59.439Z,16.00
2022-10-11T14:57:42.310Z,15.98
2022-10-11T15:00:28.683Z,15.96
2022-10-11T15:03:13.898Z,15.91
2022-10-11T15:05:56.910Z,15.87
2022-10-11T15:08:39.768Z,15.85
2022-10-11T15:11:23.730Z,15.82
2022-10-11T15:14:07.444Z,15.78
2022-10-11T15:16:50.419Z,15.73
2022-10-11T15:19:34.615Z,15.71
2022-10-11T15:22:17.522Z,15.67
2022-10-11T15:25:00.793Z,15.61
2022-10-11T15:27:43.861Z,15.55
2022-10-11T15:30:29.673Z,15.48
2022-10-11T15:33:12.557Z,15.43
2022-10-11T15:35:56.809Z,15.38
2022-10-11T15:38:39.979Z,15.33
2022-10-11T15:41:23.940Z,15.31
2022-10-11T15:44:06.789Z,15.27
2022-10-11T15:46:49.717Z,15.24
2022-10-11T15:49:32.589Z,15.22
2022-10-11T15:52:16.834Z,15.21
2022-10-11T15:54:59.708Z,15.18
2022-10-11T15:57:42.614Z,15.13
2022-10-11T16:00:26.361Z,15.10
2022-10-11T16:03:11.857Z,15.10
2022-10-11T16:05:55.440Z,15.10
2022-10-11T16:08:40.210Z,15.10
2022-10-11T16:11:22.916Z,15.09
2022-10-11T16:14:06.071Z,15.06
2022-10-11T16:16:49.035Z,15.01
2022-10-11T16:19:31.960Z,14.99
2022-10-11T16:22:14.949Z,14.96
2022-10-11T16:24:59.186Z,14.93
2022-10-11T16:27:42.107Z,14.92
2022-10-11T16:30:25.394Z,14.87
2022-10-11T16:33:08.253Z,14.84
2022-10-11T16:35:51.191Z,14.81
2022-10-11T16:38:34.101Z,14.79
2022-10-11T16:41:18.333Z,14.79
2022-10-11T16:44:01.235Z,14.76
2022-10-11T16:46:47.713Z,14.72
2022-10-11T16:49:30.633Z,14.71
2022-10-11T16:52:14.162Z,14.68
2022-10-11T16:54:57.094Z,14.66
2022-10-11T16:57:41.314Z,14.58
2022-10-11T17:00:24.217Z,14.53
2022-10-11T17:03:08.007Z,14.51
2022-10-11T17:05:51.698Z,14.47
2022-10-11T17:08:35.337Z,14.46
2022-10-11T17:11:18.625Z,14.44
2022-10-11T17:14:03.473Z,14.41
2022-10-11T17:16:46.623Z,14.39
2022-10-11T17:19:29.537Z,14.35
2022-10-11T17:22:13.751Z,14.33
2022-10-11T17:24:56.601Z,14.31
2022-10-11T17:27:39.554Z,14.30
2022-10-11T17:30:24.392Z,14.27
2022-10-11T17:33:07.046Z,14.25
2022-10-11T17:35:49.920Z,14.26
2022-10-11T17:38:32.811Z,14.22
2022-10-11T17:41:15.759Z,14.17
2022-10-11T17:43:59.337Z,14.13
2022-10-11T17:46:44.140Z,14.09
2022-10-11T17:49:27.081Z,14.06
2022-10-11T17:52:10.346Z,14.03
2022-10-11T17:54:53.226Z,14.02
2022-10-11T17:57:36.772Z,13.93
2022-10-11T18:00:19.755Z,13.86
2022-10-11T18:03:04.495Z,13.81
2022-10-11T18:05:47.157Z,13.79
2022-10-11T18:08:30.027Z,13.77
2022-10-11T18:11:14.846Z,13.77
2022-10-11T18:13:57.794Z,13.72
2022-10-11T18:16:41.010Z,13.68
2022-10-11T18:19:25.759Z,13.67
2022-10-11T18:22:08.630Z,13.64
2022-10-11T18:24:51.542Z,13.64
2022-10-11T18:27:34.412Z,13.64
2022-10-11T18:30:17.442Z,13.63
2022-10-11T18:33:00.409Z,13.64
2022-10-11T18:35:44.735Z,13.64
2022-10-11T18:38:27.571Z,13.66
2022-10-11T18:41:12.371Z,13.65
2022-10-11T18:43:56.506Z,13.64
2022-10-11T18:46:39.758Z,13.63
2022-10-11T18:49:22.683Z,13.59
2022-10-11T18:52:07.967Z,13.58
2022-10-11T18:54:50.913Z,13.58
2022-10-11T18:57:34.874Z,13.57
2022-10-11T19:00:39.594Z,13.55
2022-10-11T19:03:22.759Z,13.52
2022-10-11T19:06:06.989Z,13.51
2022-10-11T19:08:53.322Z,13.50
2022-10-11T19:11:36.496Z,13.51
2022-10-11T19:14:21.657Z,13.51
2022-10-11T19:17:04.750Z,13.52
2022-10-11T19:19:49.995Z,13.52
2022-10-11T19:22:32.884Z,13.49
2022-10-11T19:25:17.249Z,13.50
2022-10-11T19:28:00.173Z,13.50
2022-10-11T19:30:42.997Z,13.49
2022-10-11T19:33:25.866Z,13.49
2022-10-11T19:36:09.940Z,13.48
2022-10-11T19:38:56.480Z,13.48
2022-10-11T19:41:41.196Z,13.48
2022-10-11T19:44:23.962Z,13.45
2022-10-11T19:47:06.887Z,13.44
2022-10-11T19:49:49.740Z,13.40
2022-10-11T19:52:32.873Z,13.34
2022-10-11T19:55:16.268Z,13.32
2022-10-11T19:58:04.546Z,13.30
2022-10-11T20:00:59.733Z,13.26
2022-10-11T20:03:42.936Z,13.25
2022-10-11T20:06:28.512Z,13.24
2022-10-11T20:12:14.940Z,13.21
2022-10-11T20:14:59.179Z,13.21
2022-10-11T20:17:51.685Z,13.22
2022-10-11T20:20:34.551Z,13.22
2022-10-11T20:23:18.263Z,13.22
2022-10-11T20:26:03.122Z,13.23
2022-10-11T20:28:46.251Z,13.23
2022-10-11T20:31:32.177Z,13.20
2022-10-11T20:34:15.066Z,13.18
2022-10-11T20:36:57.910Z,13.18
2022-10-11T20:39:40.804Z,13.14
2022-10-11T20:42:28.936Z,13.14
2022-10-11T20:45:12.626Z,13.13
2022-10-11T20:47:56.858Z,13.03
2022-10-11T20:50:39.839Z,13.06
2022-10-11T20:53:23.459Z,13.02
2022-10-11T20:56:08.735Z,12.98
2022-10-11T20:58:53.188Z,12.92
2022-10-11T21:01:38.370Z,12.90
2022-10-11T21:04:22.620Z,12.91
2022-10-11T21:07:05.498Z,12.89
2022-10-11T21:09:48.439Z,12.86
2022-10-11T21:12:31.625Z,12.84
2022-10-11T21:15:14.871Z,12.82
2022-10-11T21:17:58.083Z,12.74
2022-10-11T21:20:43.198Z,12.73
2022-10-11T21:23:26.086Z,12.72
2022-10-11T21:26:10.669Z,12.72
2022-10-11T21:28:53.576Z,12.73
2022-10-11T21:31:37.119Z,12.76
2022-10-11T21:34:20.010Z,12.74
2022-10-11T21:37:04.269Z,12.72
2022-10-11T21:39:47.094Z,12.71
2022-10-11T21:42:29.969Z,12.72
2022-10-11T21:45:12.913Z,12.74
2022-10-11T21:47:55.709Z,12.75
2022-10-11T21:50:38.577Z,12.76
2022-10-11T21:53:22.845Z,12.80
2022-10-11T21:56:05.960Z,12.82
2022-10-11T21:58:49.485Z,12.83
2022-10-11T22:01:32.482Z,12.83
2022-10-11T22:04:15.453Z,12.81
2022-10-11T22:06:58.555Z,12.80
2022-10-11T22:09:42.795Z,12.78
2022-10-11T22:12:25.647Z,12.73
2022-10-11T22:15:09.448Z,12.74
2022-10-11T22:17:52.772Z,12.75
2022-10-11T22:20:35.705Z,12.79
2022-10-11T22:23:19.030Z,12.81
2022-10-11T22:26:08.689Z,12.82
2022-10-11T22:28:51.732Z,12.81
2022-10-11T22:31:36.241Z,12.79
2022-10-11T22:34:19.158Z,12.79
2022-10-11T22:37:01.975Z,12.78
2022-10-11T22:39:44.858Z,12.78
2022-10-11T22:42:30.268Z,12.75
2022-10-11T22:45:13.145Z,12.76
2022-10-11T22:47:55.990Z,12.74
2022-10-11T22:50:38.931Z,12.75
2022-10-11T22:53:21.917Z,12.73
2022-10-11T22:56:04.997Z,12.72
2022-10-11T22:58:49.286Z,12.70
2022-10-11T23:01:32.250Z,12.68
2022-10-11T23:04:17.633Z,12.66
2022-10-11T23:07:04.819Z,12.64
2022-10-11T23:09:48.029Z,12.62
2022-10-11T23:12:31.108Z,12.55
2022-10-11T23:15:15.949Z,12.51
2022-10-11T23:17:58.860Z,12.48
2022-10-11T23:20:41.737Z,12.45
2022-10-11T23:23:24.670Z,12.41
2022-10-11T23:26:09.847Z,12.36
2022-10-11T23:28:55.278Z,12.35
2022-10-11T23:31:39.519Z,12.35
2022-10-11T23:34:22.413Z,12.36
2022-10-11T23:37:05.949Z,12.36
2022-10-11T23:39:48.790Z,12.37
2022-10-11T23:42:31.763Z,12.38
2022-10-11T23:45:14.739Z,12.37
2022-10-11T23:47:58.950Z,12.36
2022-10-11T23:50:41.831Z,12.33
2022-10-11T23:53:24.785Z,12.31
2022-10-11T23:56:08.774Z,12.30
2022-10-11T23:58:51.658Z,12.27
